createdAt,value
2023-05-23T00:01:53.735Z,1.00
2023-05-23T00:04:24.904Z,0.90
2023-05-23T00:06:54.745Z,0.90
2023-05-23T00:09:24.381Z,1.00
2023-05-23T00:11:53.938Z,0.90
2023-05-23T00:14:23.728Z,0.73
2023-05-23T00:16:53.396Z,0.80
2023-05-23T00:19:22.974Z,0.80
2023-05-23T00:21:53.825Z,0.90
2023-05-23T00:24:23.346Z,0.83
2023-05-23T00:26:52.919Z,1.00
2023-05-23T00:29:22.514Z,0.93
2023-05-23T00:31:52.829Z,0.60
2023-05-23T00:34:22.535Z,0.80
2023-05-23T00:36:52.105Z,0.90
2023-05-23T00:39:21.931Z,1.07
2023-05-23T00:41:53.360Z,1.03
2023-05-23T00:44:23.317Z,0.70
2023-05-23T00:46:58.418Z,0.60
2023-05-23T00:49:28.492Z,0.57
2023-05-23T00:51:58.210Z,0.80
2023-05-23T00:54:34.014Z,0.77
2023-05-23T00:57:03.526Z,0.80
2023-05-23T00:59:34.378Z,0.67
2023-05-23T01:02:04.221Z,0.60
2023-05-23T01:04:34.557Z,0.70
2023-05-23T01:07:04.258Z,0.90
2023-05-23T01:09:34.402Z,1.00
2023-05-23T01:12:20.010Z,0.73
2023-05-23T01:15:11.015Z,0.80
2023-05-23T01:17:48.017Z,0.60
2023-05-23T01:20:22.432Z,0.80
2023-05-23T01:23:22.995Z,0.80
2023-05-23T01:26:20.550Z,0.90
2023-05-23T01:28:54.694Z,0.80
2023-05-23T01:31:27.898Z,0.87
2023-05-23T01:33:58.138Z,0.80
2023-05-23T01:36:28.063Z,0.60
2023-05-23T01:38:57.597Z,0.90
2023-05-23T01:41:28.379Z,0.80
2023-05-23T01:43:57.960Z,1.00
2023-05-23T01:46:29.871Z,0.90
2023-05-23T01:49:01.405Z,1.17
2023-05-23T01:51:31.859Z,0.93
2023-05-23T01:54:01.732Z,0.90
2023-05-23T01:56:31.519Z,0.80
2023-05-23T01:59:02.060Z,0.87
2023-05-23T02:01:32.262Z,1.10
2023-05-23T02:04:01.835Z,1.10
2023-05-23T02:06:31.909Z,1.10
2023-05-23T02:09:01.520Z,0.70
2023-05-23T02:11:31.129Z,0.90
2023-05-23T02:14:00.914Z,0.70
2023-05-23T02:16:30.731Z,0.90
2023-05-23T02:19:01.987Z,0.80
2023-05-23T02:21:34.936Z,1.10
2023-05-23T02:24:03.275Z,0.80
2023-05-23T02:26:32.987Z,1.03
2023-05-23T02:29:02.525Z,0.80
2023-05-23T02:31:32.690Z,0.93
2023-05-23T02:34:02.230Z,0.90
2023-05-23T02:36:33.419Z,0.87
2023-05-23T02:39:03.158Z,0.90
2023-05-23T02:41:32.705Z,1.17
2023-05-23T02:44:02.250Z,1.00
2023-05-23T02:46:31.805Z,0.90
2023-05-23T02:49:01.337Z,0.97
2023-05-23T02:51:32.142Z,0.73
2023-05-23T02:54:01.665Z,1.27
2023-05-23T02:56:31.689Z,1.00
2023-05-23T02:59:01.245Z,0.90
2023-05-23T03:01:30.832Z,1.13
2023-05-23T03:04:00.658Z,1.07
2023-05-23T03:06:32.076Z,1.20
2023-05-23T03:09:03.956Z,1.20
2023-05-23T03:11:33.827Z,1.20
2023-05-23T03:14:03.464Z,1.00
2023-05-23T03:16:33.125Z,1.10
2023-05-23T03:19:02.766Z,1.10
2023-05-23T03:21:35.459Z,1.03
2023-05-23T03:24:05.067Z,1.20
2023-05-23T03:26:34.669Z,1.50
2023-05-23T03:29:04.297Z,1.10
2023-05-23T03:31:33.954Z,1.20
2023-05-23T03:34:05.755Z,1.17
2023-05-23T03:36:35.908Z,1.10
2023-05-23T03:39:06.210Z,0.80
2023-05-23T03:41:35.919Z,0.93
2023-05-23T03:44:05.736Z,0.83
2023-05-23T03:46:35.444Z,0.90
2023-05-23T03:49:05.107Z,1.00
2023-05-23T03:51:35.498Z,0.90
2023-05-23T03:54:05.105Z,0.97
2023-05-23T03:56:34.723Z,0.80
2023-05-23T03:59:04.331Z,0.80
2023-05-23T04:01:34.260Z,1.17
2023-05-23T04:04:05.142Z,0.93
2023-05-23T04:06:35.023Z,1.23
2023-05-23T04:09:06.231Z,0.90
2023-05-23T04:11:35.930Z,1.00
2023-05-23T04:14:05.531Z,1.00
2023-05-23T04:16:36.383Z,0.87
2023-05-23T04:19:06.326Z,0.80
2023-05-23T04:21:38.742Z,0.87
2023-05-23T04:24:08.438Z,0.93
2023-05-23T04:26:38.363Z,0.70
2023-05-23T04:29:08.017Z,1.10
2023-05-23T04:31:37.684Z,0.90
2023-05-23T04:34:07.968Z,0.83
2023-05-23T04:36:38.165Z,1.07
2023-05-23T04:39:08.246Z,1.20
2023-05-23T04:41:38.553Z,1.00
2023-05-23T04:44:09.756Z,0.90
2023-05-23T04:46:41.212Z,0.97
2023-05-23T04:49:11.294Z,1.00
2023-05-23T04:51:41.456Z,1.00
2023-05-23T04:54:11.051Z,1.13
2023-05-23T04:56:40.855Z,1.07
2023-05-23T04:59:11.400Z,1.00
2023-05-23T05:01:41.333Z,1.20
2023-05-23T05:04:11.099Z,1.03
2023-05-23T05:06:42.306Z,1.00
2023-05-23T05:09:11.844Z,1.10
2023-05-23T05:11:41.387Z,1.03
2023-05-23T05:14:10.933Z,1.00
2023-05-23T05:16:40.764Z,0.87
2023-05-23T05:19:10.471Z,1.00
2023-05-23T05:21:40.075Z,1.20
2023-05-23T05:24:12.870Z,1.20
2023-05-23T05:26:42.501Z,0.80
2023-05-23T05:29:12.043Z,0.90
2023-05-23T05:31:41.699Z,1.10
2023-05-23T05:34:11.248Z,1.30
2023-05-23T05:36:42.960Z,1.50
2023-05-23T05:39:14.185Z,1.30
2023-05-23T05:41:43.717Z,1.27
2023-05-23T05:44:13.263Z,1.30
2023-05-23T05:46:42.859Z,1.10
2023-05-23T05:49:12.779Z,0.90
2023-05-23T05:51:42.306Z,1.00
2023-05-23T05:54:11.862Z,1.13
2023-05-23T05:56:42.282Z,0.90
2023-05-23T05:59:12.524Z,1.23
2023-05-23T06:01:42.316Z,1.13
2023-05-23T06:04:12.642Z,0.90
2023-05-23T06:06:42.349Z,1.13
2023-05-23T06:09:11.954Z,0.90
2023-05-23T06:11:41.501Z,1.00
2023-05-23T06:14:11.145Z,1.17
2023-05-23T06:16:41.534Z,1.43
2023-05-23T06:19:11.317Z,1.40
2023-05-23T06:21:40.926Z,1.40
2023-05-23T06:24:10.626Z,1.30
2023-05-23T06:26:40.195Z,1.40
2023-05-23T06:29:09.797Z,1.53
2023-05-23T06:31:39.384Z,1.30
2023-05-23T06:34:08.926Z,1.50
2023-05-23T06:36:38.916Z,1.50
2023-05-23T06:39:09.931Z,1.90
2023-05-23T06:41:40.434Z,1.20
2023-05-23T06:44:10.011Z,1.40
2023-05-23T06:46:40.522Z,1.57
2023-05-23T06:49:14.694Z,1.70
2023-05-23T06:51:42.015Z,1.40
2023-05-23T06:54:11.626Z,1.40
2023-05-23T06:56:41.159Z,1.33
2023-05-23T06:59:10.917Z,1.30
2023-05-23T07:01:40.650Z,1.10
2023-05-23T07:04:12.101Z,1.30
2023-05-23T07:06:41.736Z,1.27
2023-05-23T07:09:11.963Z,1.20
2023-05-23T07:11:41.502Z,1.20
2023-05-23T07:14:11.041Z,1.30
2023-05-23T07:16:40.613Z,1.10
2023-05-23T07:19:10.196Z,1.30
2023-05-23T07:21:39.740Z,1.20
2023-05-23T07:24:09.282Z,1.47
2023-05-23T07:26:38.852Z,1.37
2023-05-23T07:29:08.506Z,1.20
2023-05-23T07:31:38.380Z,1.00
2023-05-23T07:34:08.028Z,1.33
2023-05-23T07:36:37.800Z,1.40
2023-05-23T07:39:07.781Z,1.43
2023-05-23T07:41:37.489Z,1.07
2023-05-23T07:44:07.101Z,1.30
2023-05-23T07:46:36.682Z,1.40
2023-05-23T07:49:06.274Z,1.30
2023-05-23T07:51:36.270Z,1.60
2023-05-23T07:54:05.884Z,1.40
2023-05-23T07:56:35.445Z,1.10
2023-05-23T07:59:05.411Z,1.57
2023-05-23T08:01:35.553Z,1.30
2023-05-23T08:04:05.424Z,1.30
2023-05-23T08:06:34.955Z,1.23
2023-05-23T08:09:06.315Z,1.40
2023-05-23T08:11:35.842Z,1.80
2023-05-23T08:14:05.416Z,1.57
2023-05-23T08:16:36.846Z,1.80
2023-05-23T08:19:06.484Z,1.90
2023-05-23T08:21:36.810Z,1.90
2023-05-23T08:24:06.474Z,1.90
2023-05-23T08:26:36.954Z,1.67
2023-05-23T08:29:06.640Z,1.93
2023-05-23T08:31:37.584Z,1.60
2023-05-23T08:34:08.206Z,1.60
2023-05-23T08:36:39.373Z,1.93
2023-05-23T08:39:09.361Z,2.00
2023-05-23T08:41:40.894Z,1.90
2023-05-23T08:44:10.509Z,2.27
2023-05-23T08:46:49.283Z,1.90
2023-05-23T08:49:20.833Z,1.90
2023-05-23T08:51:53.393Z,1.80
2023-05-23T08:54:23.476Z,2.00
2023-05-23T08:56:53.174Z,2.20
2023-05-23T08:59:23.696Z,2.67
2023-05-23T09:01:57.276Z,2.17
2023-05-23T09:04:26.909Z,2.70
2023-05-23T09:06:58.651Z,2.50
2023-05-23T09:09:28.225Z,2.20
2023-05-23T09:12:00.331Z,2.30
2023-05-23T09:14:31.521Z,2.23
2023-05-23T09:17:04.913Z,2.30
2023-05-23T09:19:34.802Z,2.27
2023-05-23T09:22:07.293Z,2.17
2023-05-23T09:24:38.310Z,2.37
2023-05-23T09:27:08.539Z,2.20
2023-05-23T09:29:41.104Z,2.33
2023-05-23T09:32:18.837Z,2.23
2023-05-23T09:35:04.257Z,2.00
2023-05-23T09:37:39.342Z,1.70
2023-05-23T09:40:15.504Z,2.27
2023-05-23T09:42:48.383Z,2.07
2023-05-23T09:45:18.820Z,2.20
2023-05-23T09:47:54.878Z,2.20
2023-05-23T09:50:25.916Z,2.10
2023-05-23T09:53:14.771Z,2.23
2023-05-23T09:55:44.409Z,2.00
2023-05-23T09:58:15.045Z,2.13
2023-05-23T10:00:47.365Z,2.87
2023-05-23T10:03:22.434Z,2.60
2023-05-23T10:05:55.933Z,2.80
2023-05-23T10:08:41.990Z,3.00
2023-05-23T10:11:37.201Z,2.63
2023-05-23T10:14:13.136Z,2.87
2023-05-23T10:17:10.518Z,3.37
2023-05-23T10:20:06.378Z,3.47
2023-05-23T10:22:38.662Z,3.87
2023-05-23T10:25:10.434Z,3.37
2023-05-23T10:27:44.055Z,3.27
2023-05-23T10:30:14.752Z,4.00
2023-05-23T10:32:45.575Z,3.43
2023-05-23T10:35:43.462Z,3.20
2023-05-23T10:38:41.474Z,3.60
2023-05-23T10:41:21.687Z,3.20
2023-05-23T10:44:18.566Z,3.23
2023-05-23T10:47:01.854Z,3.50
2023-05-23T10:49:46.031Z,3.37
2023-05-23T10:52:18.626Z,3.10
2023-05-23T10:54:54.563Z,3.23
2023-05-23T10:57:27.855Z,4.07
2023-05-23T10:59:57.943Z,3.00
2023-05-23T11:02:32.322Z,3.70
2023-05-23T11:05:22.564Z,4.20
2023-05-23T11:08:16.215Z,4.57
2023-05-23T11:11:05.928Z,4.17
2023-05-23T11:14:02.892Z,4.20
2023-05-23T11:16:46.754Z,3.70
2023-05-23T11:19:25.147Z,3.33
2023-05-23T11:22:03.261Z,3.67
2023-05-23T11:24:55.297Z,4.17
2023-05-23T11:27:38.146Z,3.90
2023-05-23T11:30:23.418Z,4.10
2023-05-23T11:32:57.884Z,4.10
2023-05-23T11:35:28.633Z,3.20
2023-05-23T11:37:59.437Z,3.43
2023-05-23T11:40:32.916Z,4.37
2023-05-23T11:43:06.369Z,3.67
2023-05-23T11:45:37.999Z,3.27
2023-05-23T11:48:13.479Z,3.20
2023-05-23T11:50:55.149Z,3.97
2023-05-23T11:53:27.244Z,3.43
2023-05-23T11:56:02.033Z,3.13
2023-05-23T11:58:36.557Z,2.50
2023-05-23T12:01:09.074Z,2.53
2023-05-23T12:03:51.705Z,2.60
2023-05-23T12:06:24.851Z,2.33
2023-05-23T12:08:54.628Z,2.50
2023-05-23T12:11:25.342Z,2.80
2023-05-23T12:13:55.085Z,3.47
2023-05-23T12:16:24.703Z,2.57
2023-05-23T12:18:55.961Z,2.40
2023-05-23T12:21:28.896Z,2.20
2023-05-23T12:23:59.237Z,2.70
2023-05-23T12:26:29.446Z,3.00
2023-05-23T12:29:00.397Z,2.70
2023-05-23T12:31:29.926Z,2.23
2023-05-23T12:33:59.725Z,2.50
2023-05-23T12:36:32.927Z,2.50
2023-05-23T12:39:07.565Z,3.03
2023-05-23T12:41:37.333Z,2.60
2023-05-23T12:44:06.879Z,2.50
2023-05-23T12:46:36.564Z,2.47
2023-05-23T12:49:06.983Z,2.57
2023-05-23T12:51:36.580Z,2.80
2023-05-23T12:54:06.452Z,2.50
2023-05-23T12:56:35.997Z,3.37
2023-05-23T12:59:05.907Z,3.10
2023-05-23T13:01:37.315Z,3.70
2023-05-23T13:04:06.921Z,3.30
2023-05-23T13:06:36.746Z,3.20
2023-05-23T13:09:06.273Z,2.60
2023-05-23T13:11:35.949Z,2.93
2023-05-23T13:14:05.546Z,2.90
2023-05-23T13:16:36.344Z,3.20
2023-05-23T13:19:06.022Z,3.20
2023-05-23T13:21:35.625Z,3.47
2023-05-23T13:24:05.249Z,3.27
2023-05-23T13:26:34.785Z,3.17
2023-05-23T13:29:04.340Z,3.37
2023-05-23T13:31:34.012Z,3.43
2023-05-23T13:34:03.539Z,3.83
2023-05-23T13:36:33.863Z,2.80
2023-05-23T13:39:06.743Z,2.37
2023-05-23T13:41:36.317Z,2.83
2023-05-23T13:44:05.932Z,3.20
2023-05-23T13:46:35.670Z,2.70
2023-05-23T13:49:05.292Z,2.63
2023-05-23T13:51:36.471Z,2.90
2023-05-23T13:54:08.893Z,2.53
2023-05-23T13:56:39.777Z,2.57
2023-05-23T13:59:09.983Z,2.43
2023-05-23T14:01:39.516Z,2.67
2023-05-23T14:04:09.130Z,2.60
2023-05-23T14:06:39.175Z,2.60
2023-05-23T14:09:09.000Z,3.00
2023-05-23T14:11:38.566Z,3.17
2023-05-23T14:14:08.098Z,3.20
2023-05-23T14:16:37.663Z,2.67
2023-05-23T14:19:07.278Z,2.90
2023-05-23T14:21:36.863Z,2.43
2023-05-23T14:24:06.623Z,3.10
2023-05-23T14:26:36.730Z,2.50
2023-05-23T14:29:06.344Z,1.97
2023-05-23T14:31:36.252Z,3.83
2023-05-23T14:34:06.235Z,2.50
2023-05-23T14:36:37.041Z,2.37
2023-05-23T14:39:10.385Z,2.20
2023-05-23T14:41:39.134Z,2.23
2023-05-23T14:44:08.712Z,2.77
2023-05-23T14:46:38.310Z,1.87
2023-05-23T14:49:07.890Z,2.90
2023-05-23T14:51:48.561Z,1.90
2023-05-23T14:54:09.695Z,2.37
2023-05-23T14:56:40.852Z,2.20
2023-05-23T14:59:11.185Z,1.77
2023-05-23T15:01:41.207Z,1.77
2023-05-23T15:04:11.660Z,2.23
2023-05-23T15:06:42.871Z,1.73
2023-05-23T15:09:12.739Z,2.30
2023-05-23T15:11:43.921Z,1.80
2023-05-23T15:14:13.538Z,1.53
2023-05-23T15:16:48.111Z,1.40
2023-05-23T15:19:19.804Z,1.40
2023-05-23T15:21:51.588Z,1.63
2023-05-23T15:24:20.625Z,1.63
2023-05-23T15:26:50.164Z,1.20
2023-05-23T15:29:19.703Z,1.37
2023-05-23T15:31:49.314Z,1.40
2023-05-23T15:34:19.020Z,1.10
2023-05-23T15:36:48.842Z,1.67
2023-05-23T15:39:18.392Z,1.97
2023-05-23T15:41:47.968Z,1.60
2023-05-23T15:44:19.193Z,1.30
2023-05-23T15:46:51.453Z,1.30
2023-05-23T15:49:26.545Z,1.60
2023-05-23T15:51:54.192Z,1.43
2023-05-23T15:54:23.722Z,1.07
2023-05-23T15:56:53.272Z,1.10
2023-05-23T15:59:22.802Z,1.00
2023-05-23T16:01:52.397Z,1.03
2023-05-23T16:04:23.378Z,1.40
2023-05-23T16:06:53.011Z,1.07
2023-05-23T16:09:22.669Z,1.27
2023-05-23T16:11:52.206Z,0.90
2023-05-23T16:14:21.740Z,1.00
2023-05-23T16:16:51.352Z,0.90
2023-05-23T16:19:21.052Z,0.93
2023-05-23T16:21:50.689Z,0.93
2023-05-23T16:24:20.217Z,1.20
2023-05-23T16:26:49.774Z,1.40
2023-05-23T16:29:19.292Z,1.10
2023-05-23T16:31:48.905Z,1.03
2023-05-23T16:34:18.464Z,0.90
2023-05-23T16:36:48.251Z,0.90
2023-05-23T16:39:17.784Z,0.90
2023-05-23T16:41:47.398Z,1.10
2023-05-23T16:44:16.983Z,0.80
2023-05-23T16:46:46.648Z,0.80
2023-05-23T16:49:16.163Z,1.00
2023-05-23T16:51:48.422Z,0.90
2023-05-23T16:54:17.158Z,0.50
2023-05-23T16:56:46.776Z,0.70
2023-05-23T16:59:16.619Z,1.20
2023-05-23T17:01:46.478Z,1.60
2023-05-23T17:04:17.663Z,1.13
2023-05-23T17:06:47.366Z,1.00
2023-05-23T17:09:18.194Z,0.90
2023-05-23T17:11:47.932Z,0.63
2023-05-23T17:14:17.669Z,0.50
2023-05-23T17:16:47.208Z,0.40
2023-05-23T17:19:16.812Z,0.80
2023-05-23T17:21:46.359Z,0.82
2023-05-23T17:24:16.065Z,0.57
2023-05-23T17:26:45.596Z,0.40
2023-05-23T17:29:17.050Z,0.30
2023-05-23T17:31:47.258Z,0.30
2023-05-23T17:34:17.266Z,0.40
2023-05-23T17:36:47.007Z,0.30
2023-05-23T17:39:16.547Z,0.50
2023-05-23T17:41:46.240Z,0.70
2023-05-23T17:44:15.817Z,1.00
2023-05-23T17:46:45.636Z,1.27
2023-05-23T17:49:15.223Z,1.27
2023-05-23T17:51:44.752Z,1.10
2023-05-23T17:54:14.306Z,0.93
2023-05-23T17:56:44.715Z,0.77
2023-05-23T17:59:17.015Z,0.53
2023-05-23T18:01:47.011Z,0.80
2023-05-23T18:04:16.675Z,0.70
2023-05-23T18:06:46.360Z,0.80
2023-05-23T18:09:16.572Z,0.70
2023-05-23T18:11:46.370Z,0.63
2023-05-23T18:14:15.902Z,0.50
2023-05-23T18:16:45.489Z,0.90
2023-05-23T18:19:15.095Z,1.00
2023-05-23T18:21:44.705Z,0.67
2023-05-23T18:24:14.312Z,0.83
2023-05-23T18:26:43.830Z,0.57
2023-05-23T18:29:13.463Z,0.80
2023-05-23T18:31:43.032Z,0.70
2023-05-23T18:34:12.575Z,0.80
2023-05-23T18:36:42.190Z,1.00
2023-05-23T18:39:11.738Z,0.83
2023-05-23T18:41:41.622Z,1.00
2023-05-23T18:44:11.174Z,1.00
2023-05-23T18:46:40.718Z,0.73
2023-05-23T18:49:10.605Z,0.90
2023-05-23T18:51:40.277Z,0.50
2023-05-23T18:54:09.889Z,0.70
2023-05-23T18:56:39.467Z,0.87
2023-05-23T18:59:10.629Z,0.60
2023-05-23T19:01:40.406Z,0.63
2023-05-23T19:04:10.291Z,0.80
2023-05-23T19:06:40.266Z,0.73
2023-05-23T19:09:11.720Z,0.60
2023-05-23T19:11:41.428Z,0.70
2023-05-23T19:14:10.975Z,0.60
2023-05-23T19:16:40.550Z,0.70
2023-05-23T19:19:10.155Z,0.50
2023-05-23T19:21:39.746Z,0.80
2023-05-23T19:24:09.301Z,0.70
2023-05-23T19:26:40.537Z,1.10
2023-05-23T19:29:12.899Z,1.00
2023-05-23T19:31:42.542Z,0.70
2023-05-23T19:34:12.715Z,0.57
2023-05-23T19:36:43.689Z,0.60
2023-05-23T19:39:13.216Z,0.90
2023-05-23T19:41:43.484Z,0.60
2023-05-23T19:44:13.215Z,0.60
2023-05-23T19:46:42.750Z,0.80
2023-05-23T19:49:14.033Z,0.70
2023-05-23T19:51:44.723Z,0.97
2023-05-23T19:54:14.261Z,0.90
2023-05-23T19:56:45.524Z,0.70
2023-05-23T19:59:15.056Z,0.87
2023-05-23T20:01:44.673Z,0.87
2023-05-23T20:04:14.517Z,0.90
2023-05-23T20:06:44.618Z,1.27
2023-05-23T20:09:14.623Z,1.07
2023-05-23T20:11:44.934Z,0.87
2023-05-23T20:14:14.693Z,0.70
2023-05-23T20:16:44.789Z,1.20
2023-05-23T20:19:14.604Z,1.20
2023-05-23T20:21:44.203Z,1.37
2023-05-23T20:24:14.908Z,0.93
2023-05-23T20:26:44.613Z,0.90
2023-05-23T20:29:14.222Z,0.87
2023-05-23T20:31:43.872Z,0.80
2023-05-23T20:34:13.965Z,0.90
2023-05-23T20:36:43.515Z,0.77
2023-05-23T20:39:13.113Z,1.20
2023-05-23T20:41:43.758Z,1.30
2023-05-23T20:44:15.447Z,0.97
2023-05-23T20:46:45.097Z,0.67
2023-05-23T20:49:15.843Z,1.00
2023-05-23T20:51:45.755Z,0.67
2023-05-23T20:54:16.055Z,0.77
2023-05-23T20:56:46.399Z,1.10
2023-05-23T20:59:16.428Z,0.80
2023-05-23T21:01:46.232Z,0.60
2023-05-23T21:04:18.746Z,0.80
2023-05-23T21:06:47.748Z,0.87
2023-05-23T21:09:17.476Z,0.80
2023-05-23T21:11:47.047Z,0.93
2023-05-23T21:14:16.620Z,0.90
2023-05-23T21:16:46.560Z,0.77
2023-05-23T21:19:16.288Z,0.83
2023-05-23T21:21:46.205Z,0.80
2023-05-23T21:24:15.747Z,0.83
2023-05-23T21:26:45.996Z,0.73
2023-05-23T21:29:15.611Z,0.53
2023-05-23T21:31:45.165Z,0.67
2023-05-23T21:34:23.802Z,0.90
2023-05-23T21:36:46.049Z,0.80
2023-05-23T21:39:15.657Z,1.00
2023-05-23T21:41:45.186Z,0.63
2023-05-23T21:44:15.726Z,0.60
2023-05-23T21:46:45.567Z,0.80
2023-05-23T21:49:16.220Z,0.67
2023-05-23T21:51:45.739Z,0.73
2023-05-23T21:54:15.455Z,0.53
2023-05-23T21:56:44.983Z,0.70
2023-05-23T21:59:14.522Z,0.57
2023-05-23T22:01:44.070Z,0.63
2023-05-23T22:04:13.592Z,0.50
2023-05-23T22:06:43.301Z,0.60
2023-05-23T22:09:14.209Z,0.50
2023-05-23T22:11:44.229Z,0.60
2023-05-23T22:14:13.805Z,0.60
2023-05-23T22:16:43.536Z,0.50
2023-05-23T22:19:14.870Z,0.50
2023-05-23T22:21:44.571Z,0.60
2023-05-23T22:24:14.160Z,0.90
2023-05-23T22:26:43.706Z,0.60
2023-05-23T22:29:13.224Z,0.50
2023-05-23T22:31:42.838Z,0.60
2023-05-23T22:34:12.386Z,0.67
2023-05-23T22:36:42.000Z,0.80
2023-05-23T22:39:11.844Z,0.60
2023-05-23T22:41:41.620Z,0.60
2023-05-23T22:44:11.861Z,0.73
2023-05-23T22:46:44.514Z,0.43
2023-05-23T22:49:15.344Z,0.47
2023-05-23T22:51:44.865Z,0.60
2023-05-23T22:54:14.750Z,0.60
2023-05-23T22:56:44.316Z,0.50
2023-05-23T22:59:13.946Z,0.77
2023-05-23T23:01:43.620Z,0.63
2023-05-23T23:04:13.198Z,0.77
2023-05-23T23:06:45.441Z,0.57
2023-05-23T23:09:15.249Z,0.67
2023-05-23T23:11:44.815Z,0.70
2023-05-23T23:14:14.438Z,0.70
2023-05-23T23:16:45.627Z,1.03
2023-05-23T23:19:15.187Z,0.53
2023-05-23T23:21:45.105Z,0.70
2023-05-23T23:24:14.634Z,0.47
2023-05-23T23:26:44.229Z,0.50
2023-05-23T23:29:13.758Z,0.37
2023-05-23T23:31:43.322Z,0.30
2023-05-23T23:34:13.375Z,0.43
2023-05-23T23:36:43.195Z,0.50
2023-05-23T23:39:12.719Z,0.70
2023-05-23T23:41:42.478Z,0.70
2023-05-23T23:44:12.246Z,0.60
2023-05-23T23:46:41.900Z,0.33
2023-05-23T23:49:11.456Z,1.00
2023-05-23T23:51:41.055Z,0.60
2023-05-23T23:54:10.586Z,0.60
2023-05-23T23:56:40.343Z,0.60
2023-05-23T23:59:09.897Z,0.47
